Time;durP1;ratioP1;P1;durP2;ratioP2;P2;SDS_P1;SDS_P2;PMS_P1;PMS_P2;Temp;Humidity;BMP_temperature;BMP_pressure;BME280_temperature;BME280_humidity;BME280_pressure;Samples;Min_cycle;Max_cycle;Signal;HPM_P1;HPM_P2
2022/10/02 00:06:50;;;;;;;3.97;1.55;;;;;;;;;;20600045;28;20051;-71
2022/10/02 00:16:55;;;;;;;5.25;1.48;;;;;;;;;;20599950;28;20043;-72
2022/10/02 00:27:01;;;;;;;2.47;1.55;;;;;;;;;;20598213;28;20065;-72
2022/10/02 00:37:03;;;;;;;4.07;1.58;;;;;;;;;;20597482;28;20051;-72
2022/10/02 00:47:20;;;;;;;5.80;1.50;;;;;;;;;;20595972;28;20055;-70
2022/10/02 00:57:22;;;;;;;4.38;1.20;;;;;;;;;;20597557;28;20051;-74
2022/10/02 01:07:24;;;;;;;3.88;1.70;;;;;;;;;;20596608;28;20077;-69
2022/10/02 01:17:29;;;;;;;5.07;1.63;;;;;;;;;;20595131;28;20487;-66
2022/10/02 01:27:32;;;;;;;3.17;1.40;;;;;;;;;;20594012;28;20042;-65
2022/10/02 01:37:40;;;;;;;4.53;1.30;;;;;;;;;;20593160;28;20047;-67
2022/10/02 01:48:00;;;;;;;4.10;1.38;;;;;;;;;;20592402;28;20096;-66
2022/10/02 01:58:28;;;;;;;5.20;0.90;;;;;;;;;;20592940;28;20051;-65
2022/10/02 02:08:41;;;;;;;3.63;1.65;;;;;;;;;;20592000;28;20057;-67
2022/10/02 02:18:57;;;;;;;7.13;1.40;;;;;;;;;;20604607;28;20051;-67
2022/10/02 02:29:04;;;;;;;4.40;1.25;;;;;;;;;;20589253;28;20062;-70
2022/10/02 02:39:14;;;;;;;6.47;1.60;;;;;;;;;;20604087;28;20518;-72
2022/10/02 02:49:23;;;;;;;3.65;1.60;;;;;;;;;;20602256;28;20058;-70
2022/10/02 02:59:30;;;;;;;4.18;1.30;;;;;;;;;;20587386;28;20106;-68
2022/10/02 03:09:32;;;;;;;3.20;1.48;;;;;;;;;;20601775;28;20061;-70
2022/10/02 03:19:40;;;;;;;4.18;1.73;;;;;;;;;;20587307;28;20046;-71
2022/10/02 03:30:06;;;;;;;4.30;1.77;;;;;;;;;;20586907;28;20107;-72
2022/10/02 03:40:08;;;;;;;5.70;1.70;;;;;;;;;;20600698;28;20098;-69
2022/10/02 03:50:13;;;;;;;4.07;1.48;;;;;;;;;;20586129;28;20415;-67
2022/10/02 04:00:22;;;;;;;6.75;1.92;;;;;;;;;;20585144;28;20141;-71
2022/10/02 04:10:27;;;;;;;3.67;1.67;;;;;;;;;;20585038;28;20077;-71
2022/10/02 04:20:51;;;;;;;4.97;1.67;;;;;;;;;;20589665;28;20047;-68
2022/10/02 04:30:55;;;;;;;2.92;1.60;;;;;;;;;;20598418;28;20158;-71
2022/10/02 04:41:00;;;;;;;2.40;1.30;;;;;;;;;;20597262;28;20530;-65
2022/10/02 04:51:21;;;;;;;3.45;1.35;;;;;;;;;;20596660;28;20414;-66
2022/10/02 05:01:23;;;;;;;2.58;1.33;;;;;;;;;;20596548;28;20047;-68
2022/10/02 05:11:44;;;;;;;4.85;1.50;;;;;;;;;;20595200;28;20102;-66
2022/10/02 05:22:04;;;;;;;6.53;1.30;;;;;;;;;;20594583;28;20488;-66
2022/10/02 05:32:16;;;;;;;5.57;1.90;;;;;;;;;;20593193;28;20054;-66
2022/10/02 05:42:29;;;;;;;5.03;1.55;;;;;;;;;;20592138;28;20046;-65
2022/10/02 05:52:46;;;;;;;4.78;1.75;;;;;;;;;;20592928;28;20058;-68
2022/10/02 06:02:51;;;;;;;3.92;1.38;;;;;;;;;;20591252;28;20166;-65
2022/10/02 06:13:08;;;;;;;3.10;1.52;;;;;;;;;;20591068;28;20452;-67
2022/10/02 06:23:13;;;;;;;10.50;1.92;;;;;;;;;;20589648;28;20146;-68
2022/10/02 06:33:25;;;;;;;6.47;2.92;;;;;;;;;;20604674;28;20050;-67
2022/10/02 06:43:51;;;;;;;11.98;2.35;;;;;;;;;;20588335;28;20055;-68
2022/10/02 06:53:57;;;;;;;5.32;2.22;;;;;;;;;;20580079;28;20146;-64
2022/10/02 07:04:03;;;;;;;5.03;1.88;;;;;;;;;;20578978;28;20397;-64
2022/10/02 07:14:26;;;;;;;6.95;2.17;;;;;;;;;;20578297;28;20062;-66
2022/10/02 07:24:44;;;;;;;3.10;1.42;;;;;;;;;;20580368;28;20081;-66
2022/10/02 07:34:59;;;;;;;2.30;1.20;;;;;;;;;;20586862;28;20106;-69
2022/10/02 07:45:10;;;;;;;30.75;16.45;;;;;;;;;;20586155;28;20061;-71
2022/10/02 07:55:22;;;;;;;6.30;1.50;;;;;;;;;;20606922;28;20058;-72
2022/10/02 08:05:26;;;;;;;6.03;1.95;;;;;;;;;;20599942;28;20047;-69
2022/10/02 08:15:32;;;;;;;5.53;1.58;;;;;;;;;;20614299;28;20050;-68
2022/10/02 08:25:54;;;;;;;4.05;1.50;;;;;;;;;;20598795;28;20054;-68
2022/10/02 08:35:58;;;;;;;2.75;1.58;;;;;;;;;;20597834;28;20105;-71
2022/10/02 08:46:06;;;;;;;7.43;1.60;;;;;;;;;;20597321;28;20054;-71
2022/10/02 08:56:13;;;;;;;5.55;2.35;;;;;;;;;;20611844;28;20106;-66
2022/10/02 09:06:35;;;;;;;3.83;1.35;;;;;;;;;;20595276;28;20059;-63
2022/10/02 09:16:40;;;;;;;5.25;0.85;;;;;;;;;;20589450;28;20039;-66
2022/10/02 09:27:02;;;;;;;1.38;0.75;;;;;;;;;;20588397;28;20467;-63
2022/10/02 09:37:05;;;;;;;2.58;0.73;;;;;;;;;;20587337;28;20534;-67
2022/10/02 09:47:15;;;;;;;2.72;1.58;;;;;;;;;;20584082;28;20070;-68
2022/10/02 09:57:46;;;;;;;1.52;0.73;;;;;;;;;;20581949;28;20530;-66
2022/10/02 10:07:50;;;;;;;4.05;0.77;;;;;;;;;;20588722;28;20047;-64
2022/10/02 10:18:00;;;;;;;1.88;0.52;;;;;;;;;;20583912;28;20058;-69
2022/10/02 10:28:04;;;;;;;0.88;0.20;;;;;;;;;;20577591;28;20831;-70
2022/10/02 10:38:31;;;;;;;23.88;11.48;;;;;;;;;;20583942;28;20487;-72
2022/10/02 10:48:35;;;;;;;7.80;1.38;;;;;;;;;;20588478;28;20054;-68
2022/10/02 10:58:46;;;;;;;1.63;0.65;;;;;;;;;;20589219;28;20050;-64
2022/10/02 11:09:03;;;;;;;0.98;0.50;;;;;;;;;;20587412;28;20141;-64
2022/10/02 11:19:25;;;;;;;0.73;0.30;;;;;;;;;;20587013;28;20051;-67
2022/10/02 11:29:33;;;;;;;1.02;0.40;;;;;;;;;;20592109;28;20055;-68
2022/10/02 11:39:54;;;;;;;1.08;0.45;;;;;;;;;;20616484;28;20086;-67
2022/10/02 11:50:00;;;;;;;0.95;0.30;;;;;;;;;;20601158;28;20093;-67
2022/10/02 12:00:14;;;;;;;1.20;0.40;;;;;;;;;;20600392;28;20054;-69
2022/10/02 12:10:21;;;;;;;1.20;0.43;;;;;;;;;;20599922;28;20085;-69
2022/10/02 12:31:06;;;;;;;0.88;0.30;;;;;;;;;;20598943;28;20411;-65
2022/10/02 12:41:08;;;;;;;2.83;0.63;;;;;;;;;;20596664;28;20189;-68
2022/10/02 12:51:15;;;;;;;1.10;0.40;;;;;;;;;;20596776;28;20050;-69
2022/10/02 13:01:17;;;;;;;2.47;0.68;;;;;;;;;;20595936;28;20400;-69
2022/10/02 13:11:23;;;;;;;1.80;0.40;;;;;;;;;;20595192;28;20051;-69
2022/10/02 13:21:30;;;;;;;3.65;0.35;;;;;;;;;;20594377;28;20047;-69
2022/10/02 13:31:38;;;;;;;0.77;0.30;;;;;;;;;;20607676;28;20447;-69
2022/10/02 13:41:50;;;;;;;1.23;0.20;;;;;;;;;;20592367;28;20182;-68
2022/10/02 13:51:56;;;;;;;2.05;0.80;;;;;;;;;;20606524;28;20109;-69
2022/10/02 14:01:58;;;;;;;2.13;0.60;;;;;;;;;;20606009;28;20055;-67
2022/10/02 14:12:27;;;;;;;0.85;0.30;;;;;;;;;;20589167;28;20109;-67
2022/10/02 14:22:29;;;;;;;0.65;0.40;;;;;;;;;;20588154;28;20054;-65
2022/10/02 14:32:40;;;;;;;0.50;0.30;;;;;;;;;;20587192;28;20138;-66
2022/10/02 14:42:52;;;;;;;1.52;0.50;;;;;;;;;;20587308;28;20055;-68
2022/10/02 14:52:58;;;;;;;2.17;0.30;;;;;;;;;;20587247;28;20134;-66
2022/10/02 15:03:15;;;;;;;0.40;0.20;;;;;;;;;;20586207;28;20057;-66
2022/10/02 15:13:36;;;;;;;1.07;0.77;;;;;;;;;;20585983;28;20467;-70
2022/10/02 15:23:40;;;;;;;0.80;0.50;;;;;;;;;;20585395;28;20319;-68
2022/10/02 15:33:59;;;;;;;1.05;0.40;;;;;;;;;;20586441;28;20459;-69
2022/10/02 15:44:24;;;;;;;1.80;0.65;;;;;;;;;;20585080;28;20058;-70
2022/10/02 15:54:41;;;;;;;1.80;0.47;;;;;;;;;;20586449;28;20054;-71
2022/10/02 16:04:58;;;;;;;1.83;0.50;;;;;;;;;;20584846;28;20055;-67
2022/10/02 16:15:10;;;;;;;31.67;19.63;;;;;;;;;;20588513;28;20053;-66
2022/10/02 16:25:12;;;;;;;4.88;0.80;;;;;;;;;;20597573;28;20051;-70
2022/10/02 16:35:19;;;;;;;0.57;0.47;;;;;;;;;;20597234;28;20066;-67
2022/10/02 16:45:36;;;;;;;1.90;0.50;;;;;;;;;;20595990;28;20117;-69
2022/10/02 16:55:50;;;;;;;1.92;0.70;;;;;;;;;;20595542;28;20057;-68
2022/10/02 17:06:10;;;;;;;3.22;0.50;;;;;;;;;;20609522;28;20061;-71
2022/10/02 17:16:34;;;;;;;1.00;0.60;;;;;;;;;;20594488;28;20535;-69
2022/10/02 17:26:42;;;;;;;2.10;0.95;;;;;;;;;;20592548;28;20082;-68
2022/10/02 17:37:05;;;;;;;2.38;0.90;;;;;;;;;;20607317;28;20047;-70
2022/10/02 17:47:34;;;;;;;3.97;1.30;;;;;;;;;;20594480;28;20063;-69
2022/10/02 17:57:48;;;;;;;4.57;1.77;;;;;;;;;;20589762;28;20050;-68
2022/10/02 18:08:02;;;;;;;3.40;2.10;;;;;;;;;;20590959;28;20500;-68
2022/10/02 18:18:16;;;;;;;6.35;2.38;;;;;;;;;;20589531;28;20043;-69
2022/10/02 18:28:31;;;;;;;3.88;1.90;;;;;;;;;;20589683;28;20046;-67
2022/10/02 18:38:52;;;;;;;4.38;1.67;;;;;;;;;;20588220;28;20436;-69
2022/10/02 18:49:29;;;;;;;4.80;2.10;;;;;;;;;;20587993;28;20074;-66
2022/10/02 18:59:52;;;;;;;6.80;2.77;;;;;;;;;;20659284;28;20050;-66
2022/10/02 19:10:14;;;;;;;5.07;2.72;;;;;;;;;;20658659;28;20058;-71
2022/10/02 19:20:52;;;;;;;6.65;3.00;;;;;;;;;;20651976;28;20499;-68
2022/10/02 19:30:58;;;;;;;8.60;3.95;;;;;;;;;;20497938;28;20063;-69
2022/10/02 19:41:08;;;;;;;7.97;3.00;;;;;;;;;;20498280;28;20059;-66
2022/10/02 19:51:18;;;;;;;4.85;1.75;;;;;;;;;;20504029;28;20055;-69
2022/10/02 20:01:20;;;;;;;4.70;1.67;;;;;;;;;;20559624;28;20054;-67
2022/10/02 20:11:51;;;;;;;5.00;1.55;;;;;;;;;;20599890;28;20138;-70
2022/10/02 20:21:55;;;;;;;4.40;1.75;;;;;;;;;;20672195;28;20443;-67
2022/10/02 20:32:02;;;;;;;3.28;1.10;;;;;;;;;;20670451;28;20054;-65
2022/10/02 20:42:04;;;;;;;1.85;0.95;;;;;;;;;;20669658;28;20186;-66
2022/10/02 20:52:23;;;;;;;3.38;1.58;;;;;;;;;;20649933;28;20051;-65
2022/10/02 21:02:46;;;;;;;3.13;1.38;;;;;;;;;;20610004;28;20427;-66
2022/10/02 21:13:05;;;;;;;4.78;1.60;;;;;;;;;;20596583;28;20462;-66
2022/10/02 21:23:28;;;;;;;3.93;1.47;;;;;;;;;;20594808;28;20050;-68
2022/10/02 21:33:40;;;;;;;2.95;1.02;;;;;;;;;;20595326;28;20101;-69
2022/10/02 21:43:59;;;;;;;4.53;1.30;;;;;;;;;;20593814;28;20055;-68
2022/10/02 21:54:04;;;;;;;1.73;0.98;;;;;;;;;;20592772;28;20082;-66
2022/10/02 22:04:06;;;;;;;2.75;1.02;;;;;;;;;;20591575;28;20090;-65
2022/10/02 22:14:12;;;;;;;5.47;1.35;;;;;;;;;;20590543;28;20046;-66
2022/10/02 22:24:27;;;;;;;6.28;1.40;;;;;;;;;;20590397;28;20054;-65
2022/10/02 22:34:29;;;;;;;2.78;1.23;;;;;;;;;;20589045;28;20050;-65
2022/10/02 22:44:31;;;;;;;2.03;1.20;;;;;;;;;;20589007;28;20054;-65
2022/10/02 22:54:39;;;;;;;3.42;1.00;;;;;;;;;;20604231;28;20452;-63
2022/10/02 23:04:40;;;;;;;;;;;;;;;;;;20589388;28;20054;-68
2022/10/02 23:14:42;;;;;;;3.60;1.13;;;;;;;;;;20588652;28;20057;-69
2022/10/02 23:24:54;;;;;;;2.88;1.20;;;;;;;;;;20592620;28;20051;-70
2022/10/02 23:35:05;;;;;;;3.42;1.15;;;;;;;;;;20603981;28;20488;-65
2022/10/02 23:45:24;;;;;;;6.55;1.30;;;;;;;;;;20602653;28;20499;-66
2022/10/02 23:55:36;;;;;;;3.75;0.90;;;;;;;;;;20602318;28;20061;-64
